createdAt,value
2022-11-12T00:07:24.466Z,19.13
2022-11-12T00:17:25.905Z,16.77
2022-11-12T00:27:27.308Z,16.90
2022-11-12T00:37:28.648Z,14.13
2022-11-12T00:47:29.985Z,17.03
2022-11-12T00:57:31.311Z,12.27
2022-11-12T01:07:33.007Z,14.30
2022-11-12T01:17:34.496Z,11.80
2022-11-12T01:27:35.816Z,14.27
2022-11-12T01:37:37.197Z,11.43
2022-11-12T01:47:38.665Z,13.57
2022-11-12T01:57:51.826Z,15.10
2022-11-12T02:07:53.232Z,16.10
2022-11-12T02:17:54.560Z,12.23
2022-11-12T02:27:58.105Z,12.27
2022-11-12T02:37:59.755Z,12.68
2022-11-12T02:48:01.660Z,14.10
2022-11-12T02:58:03.002Z,16.23
2022-11-12T03:08:07.120Z,16.83
2022-11-12T03:18:08.489Z,16.52
2022-11-12T03:28:12.645Z,19.27
2022-11-12T03:38:13.968Z,15.97
2022-11-12T03:48:15.316Z,16.23
2022-11-12T03:58:16.658Z,14.63
2022-11-12T04:08:36.335Z,15.47
2022-11-12T04:18:56.296Z,14.93
2022-11-12T04:29:15.918Z,13.10
2022-11-12T04:39:17.411Z,14.87
2022-11-12T04:49:18.747Z,13.83
2022-11-12T04:59:20.056Z,13.90
2022-11-12T05:09:26.639Z,13.23
2022-11-12T05:19:28.019Z,17.27
2022-11-12T05:29:29.408Z,17.27
2022-11-12T05:39:30.749Z,14.80
2022-11-12T05:49:32.080Z,14.43
2022-11-12T05:59:33.479Z,15.18
2022-11-12T06:09:34.806Z,17.48
2022-11-12T06:19:36.113Z,14.20
2022-11-12T06:29:38.668Z,17.43
2022-11-12T06:39:40.027Z,17.58
2022-11-12T06:49:41.385Z,13.77
2022-11-12T06:59:43.186Z,16.00
2022-11-12T07:09:44.502Z,16.25
2022-11-12T07:19:45.832Z,16.90
2022-11-12T07:29:48.648Z,15.37
2022-11-12T07:39:50.613Z,15.82
2022-11-12T07:49:51.942Z,22.23
2022-11-12T07:59:53.261Z,20.53
2022-11-12T08:09:55.281Z,21.70
2022-11-12T08:19:56.707Z,21.35
2022-11-12T08:29:58.036Z,18.73
2022-11-12T08:39:59.351Z,16.00
2022-11-12T08:50:00.651Z,14.70
2022-11-12T09:00:02.304Z,16.43
2022-11-12T09:10:04.245Z,20.30
2022-11-12T09:20:06.150Z,16.48
2022-11-12T09:30:08.084Z,15.68
2022-11-12T09:40:17.521Z,13.67
2022-11-12T09:50:28.957Z,14.13
2022-11-12T10:00:30.451Z,13.50
2022-11-12T10:11:02.070Z,13.47
2022-11-12T10:21:15.750Z,13.97
2022-11-12T10:31:20.539Z,14.20
2022-11-12T10:41:30.772Z,14.13
2022-11-12T10:51:35.328Z,11.17
2022-11-12T11:01:40.449Z,10.00
2022-11-12T11:11:53.931Z,9.40
2022-11-12T11:22:05.604Z,10.67
2022-11-12T11:32:41.882Z,10.47
2022-11-12T11:42:52.225Z,7.07
2022-11-12T11:53:09.341Z,5.57
2022-11-12T12:03:33.605Z,5.57
2022-11-12T12:13:50.309Z,5.03
2022-11-12T12:24:01.196Z,4.97
2022-11-12T12:34:15.396Z,4.90
2022-11-12T12:44:16.741Z,5.63
2022-11-12T12:54:36.205Z,4.80
2022-11-12T13:04:53.011Z,4.87
2022-11-12T13:15:12.955Z,4.53
2022-11-12T13:25:14.580Z,6.22
2022-11-12T13:35:20.434Z,6.10
2022-11-12T13:45:25.017Z,5.17
2022-11-12T13:55:32.888Z,5.88
2022-11-12T14:05:35.956Z,5.50
2022-11-12T14:16:19.136Z,5.17
2022-11-12T14:26:41.194Z,6.00
2022-11-12T14:36:42.670Z,5.90
2022-11-12T14:46:47.871Z,5.53
2022-11-12T14:56:49.405Z,6.35
2022-11-12T15:06:56.424Z,6.70
2022-11-12T15:17:00.473Z,12.50
2022-11-12T15:27:40.903Z,9.77
2022-11-12T15:37:43.177Z,12.93
2022-11-12T15:47:44.610Z,11.07
2022-11-12T15:57:51.824Z,14.83
2022-11-12T16:07:53.128Z,19.63
2022-11-12T16:18:00.129Z,22.03
2022-11-12T16:28:01.995Z,17.17
2022-11-12T16:38:03.627Z,22.38
2022-11-12T16:48:12.268Z,17.53
2022-11-12T16:58:14.586Z,19.67
2022-11-12T17:08:15.935Z,20.98
2022-11-12T17:18:17.257Z,25.65
2022-11-12T17:28:18.590Z,23.70
2022-11-12T17:38:19.946Z,22.17
2022-11-12T17:48:21.748Z,19.90
2022-11-12T17:58:23.148Z,21.43
2022-11-12T18:08:24.864Z,21.30
2022-11-12T18:18:27.518Z,21.25
2022-11-12T18:28:29.172Z,20.13
2022-11-12T18:38:35.193Z,26.33
2022-11-12T18:48:37.774Z,21.10
2022-11-12T18:58:39.243Z,27.13
2022-11-12T19:08:41.335Z,24.57
2022-11-12T19:18:43.687Z,29.87
2022-11-12T19:28:45.487Z,28.67
2022-11-12T19:38:46.876Z,28.27
2022-11-12T19:48:48.664Z,28.70
2022-11-12T19:58:50.201Z,30.17
2022-11-12T20:08:51.836Z,31.23
2022-11-12T20:18:55.509Z,40.93
2022-11-12T20:28:56.889Z,25.23
2022-11-12T20:38:58.415Z,28.50
2022-11-12T20:48:59.998Z,34.43
2022-11-12T20:59:01.740Z,26.03
2022-11-12T21:09:03.279Z,32.55
2022-11-12T21:19:07.765Z,31.27
2022-11-12T21:29:09.103Z,27.03
2022-11-12T21:39:11.919Z,25.17
2022-11-12T21:49:13.251Z,23.70
2022-11-12T21:59:14.576Z,24.60
2022-11-12T22:09:16.426Z,27.83
2022-11-12T22:19:19.285Z,27.88
2022-11-12T22:29:20.636Z,26.83
2022-11-12T22:39:21.999Z,28.57
2022-11-12T22:49:23.345Z,30.98
2022-11-12T22:59:24.661Z,25.93
2022-11-12T23:09:26.066Z,29.70
2022-11-12T23:19:27.697Z,25.77
2022-11-12T23:29:29.037Z,24.03
2022-11-12T23:39:30.714Z,25.83
2022-11-12T23:49:32.151Z,29.50
2022-11-12T23:59:33.499Z,34.47
